Forest, Washington
Current Conditions -  °F | °C
As of 12:15 PM on Friday 19 Dec 2014 (Local Time) from KCLS Reporting Station
Clear Clear  
Wind Chill: 52°   Ceiling: Unl
Heat Index: 52°   Visibility: 10mi
Dew Point: 45°   Wind: 16mph
Humidity: 76%   Direction: 180°S
Pressure: 29.97"   Gusts: 22mph
Location:  46.6561°N, 122.993°W
Report Text: KCLS 192015Z AUTO 18014G19KT 10SM CLR 11/07 A2997 RMK AO2
Loading
Personal Weather Stations






























Interactive Weather Map New forecast layout! Learn more

10-Day Weather Forecast

Advertisements
Track Severe Weather on mobile